Time;durP1;ratioP1;P1;durP2;ratioP2;P2;SDS_P1;SDS_P2;PMS_P1;PMS_P2;Temp;Humidity;BMP_temperature;BMP_pressure;BME280_temperature;BME280_humidity;BME280_pressure;Samples;Min_cycle;Max_cycle;Signal;HPM_P1;HPM_P2
2022/07/05 00:01:17;;;;;;;5.40;2.17;;;;;;;15.81;67.79;100781.84;5120106;28;20644;-66
2022/07/05 00:03:44;;;;;;;5.07;2.30;;;;;;;15.76;67.82;100784.19;5121719;28;20445;-66
2022/07/05 00:06:10;;;;;;;3.47;2.13;;;;;;;15.65;68.25;100775.50;5120146;28;20488;-67
2022/07/05 00:08:37;;;;;;;3.37;2.20;;;;;;;15.59;68.79;100782.38;5121571;28;21150;-67
2022/07/05 00:11:05;;;;;;;2.40;2.20;;;;;;;15.58;68.87;100775.28;5119872;28;20858;-66
2022/07/05 00:13:32;;;;;;;3.43;2.30;;;;;;;15.56;69.03;100771.91;5121443;28;20469;-66
2022/07/05 00:15:58;;;;;;;5.83;2.67;;;;;;;15.54;68.89;100787.41;5120379;28;21085;-67
2022/07/05 00:18:25;;;;;;;4.10;3.17;;;;;;;15.52;68.95;100790.25;5120849;28;20911;-66
2022/07/05 00:20:52;;;;;;;4.20;2.57;;;;;;;15.52;68.95;100786.69;5119999;28;20500;-67
2022/07/05 00:23:18;;;;;;;2.97;2.67;;;;;;;15.45;69.14;100786.53;5121107;28;21006;-66
2022/07/05 00:25:45;;;;;;;3.67;2.30;;;;;;;15.42;69.20;100784.13;5119629;28;20470;-66
2022/07/05 00:28:15;;;;;;;4.93;2.70;;;;;;;15.46;68.82;100784.66;5121210;28;20911;-66
2022/07/05 00:30:41;;;;;;;2.90;2.40;;;;;;;15.35;69.37;100789.31;5119243;28;20477;-66
2022/07/05 00:33:08;;;;;;;4.13;2.90;;;;;;;15.30;69.25;100794.31;5117947;28;20438;-66
2022/07/05 00:35:35;;;;;;;2.97;2.70;;;;;;;15.28;69.22;100788.25;5119729;28;20497;-66
2022/07/05 00:38:01;;;;;;;5.63;2.87;;;;;;;15.22;69.68;100796.94;5120927;28;20503;-67
2022/07/05 00:40:28;;;;;;;4.67;2.33;;;;;;;15.23;69.51;100793.28;5119659;28;20469;-66
2022/07/05 00:42:55;;;;;;;3.70;2.27;;;;;;;15.22;69.36;100780.78;5120707;28;20454;-66
2022/07/05 00:45:23;;;;;;;2.83;2.40;;;;;;;15.27;68.82;100783.84;5119502;28;20446;-67
2022/07/05 00:47:49;;;;;;;4.67;2.70;;;;;;;15.31;68.78;100785.25;5120263;28;20438;-66
2022/07/05 00:50:16;;;;;;;4.57;2.67;;;;;;;15.22;68.89;100783.47;5120047;28;20450;-66
2022/07/05 00:52:43;;;;;;;4.93;2.83;;;;;;;15.13;69.35;100787.13;5120541;28;20441;-67
2022/07/05 00:55:10;;;;;;;3.70;2.20;;;;;;;15.09;69.26;100792.00;5119800;28;20470;-67
2022/07/05 00:57:37;;;;;;;7.13;2.93;;;;;;;15.13;69.53;100798.75;5119861;28;20490;-66
2022/07/05 01:00:05;;;;;;;3.80;2.90;;;;;;;15.22;69.32;100794.25;5120491;28;20438;-67
2022/07/05 01:02:33;;;;;;;3.53;2.27;;;;;;;15.32;68.81;100789.63;5119215;28;20447;-66
2022/07/05 01:05:00;;;;;;;6.77;2.50;;;;;;;15.27;68.92;100794.63;5119860;28;20467;-66
2022/07/05 01:07:27;;;;;;;3.07;2.30;;;;;;;15.27;68.63;100791.94;5119751;28;20466;-67
2022/07/05 01:09:53;;;;;;;2.63;2.43;;;;;;;15.21;68.93;100800.66;5120169;28;20533;-66
2022/07/05 01:12:20;;;;;;;2.67;2.40;;;;;;;15.09;69.38;100800.06;5119900;28;20534;-66
2022/07/05 01:14:47;;;;;;;3.67;2.10;;;;;;;15.03;69.47;100790.78;5120164;28;20434;-67
2022/07/05 01:17:14;;;;;;;2.97;2.70;;;;;;;15.14;69.69;100800.44;5119189;28;20478;-66
2022/07/05 01:19:42;;;;;;;2.70;2.47;;;;;;;15.20;69.46;100798.97;5119536;28;20472;-67
2022/07/05 01:22:14;;;;;;;2.90;2.20;;;;;;;15.25;69.37;100802.88;5119913;28;20502;-67
2022/07/05 01:24:43;;;;;;;3.10;2.90;;;;;;;15.25;69.13;100799.34;5119827;28;20474;-67
2022/07/05 01:27:09;;;;;;;3.83;3.07;;;;;;;15.23;69.18;100793.28;5119232;28;20474;-67
2022/07/05 01:29:36;;;;;;;5.17;3.33;;;;;;;15.21;69.16;100787.19;5119785;28;20470;-67
2022/07/05 01:32:03;;;;;;;6.77;3.10;;;;;;;15.23;69.07;100790.56;5119198;28;20474;-67
2022/07/05 01:34:30;;;;;;;3.13;2.87;;;;;;;15.21;68.97;100798.81;5119727;28;20489;-67
2022/07/05 01:36:57;;;;;;;4.03;3.50;;;;;;;15.19;68.77;100794.56;5120198;28;20498;-67
2022/07/05 01:39:23;;;;;;;3.43;3.00;;;;;;;15.09;68.86;100789.28;5124382;28;20441;-67
2022/07/05 01:41:51;;;;;;;5.43;2.80;;;;;;;15.13;69.05;100787.13;5122586;28;20513;-67
2022/07/05 01:44:18;;;;;;;3.67;3.03;;;;;;;15.13;68.28;100792.53;5124184;28;20438;-68
2022/07/05 01:46:45;;;;;;;3.40;2.70;;;;;;;15.19;68.47;100791.88;5133061;27;20513;-68
2022/07/05 01:49:14;;;;;;;2.97;2.23;;;;;;;15.23;68.10;100798.66;5126140;27;20499;-67
2022/07/05 01:51:47;;;;;;;3.33;2.70;;;;;;;15.20;67.52;100799.81;5122760;28;20466;-66
2022/07/05 01:54:14;;;;;;;3.43;2.90;;;;;;;15.28;67.31;100800.88;5124275;28;20910;-66
2022/07/05 01:56:41;;;;;;;5.90;2.50;;;;;;;15.32;66.87;100797.69;5122274;28;20505;-66
2022/07/05 01:59:09;;;;;;;6.60;2.60;;;;;;;15.30;66.91;100802.41;5124326;28;20459;-65
2022/07/05 02:01:37;;;;;;;3.67;2.90;;;;;;;15.38;66.23;100801.59;5123250;28;20465;-66
2022/07/05 02:04:05;;;;;;;4.60;2.87;;;;;;;15.34;66.42;100795.69;5123821;28;20431;-65
2022/07/05 02:06:33;;;;;;;4.13;2.57;;;;;;;15.27;66.62;100797.31;5122699;28;20502;-65
2022/07/05 02:09:00;;;;;;;4.20;3.13;;;;;;;15.34;66.36;100798.38;5124062;28;20446;-65
2022/07/05 02:11:26;;;;;;;4.40;2.77;;;;;;;15.24;66.45;100794.94;5121619;28;21057;-66
2022/07/05 02:13:53;;;;;;;3.13;2.93;;;;;;;15.19;66.76;100791.88;5123768;28;20441;-66
2022/07/05 02:16:24;;;;;;;4.93;2.80;;;;;;;15.23;66.56;100796.81;5122656;28;20524;-66
2022/07/05 02:18:50;;;;;;;3.20;2.80;;;;;;;15.26;66.40;100790.28;5123435;28;20457;-65
2022/07/05 02:21:17;;;;;;;4.60;2.97;;;;;;;15.24;66.84;100792.25;5122074;28;20481;-66
2022/07/05 02:23:44;;;;;;;3.50;2.83;;;;;;;15.15;66.74;100796.72;5123499;28;20438;-65
2022/07/05 02:26:11;;;;;;;3.43;3.00;;;;;;;15.24;66.80;100792.25;5122338;28;20955;-66
2022/07/05 02:28:37;;;;;;;2.90;2.47;;;;;;;15.32;66.56;100792.31;5124182;28;20422;-65
2022/07/05 02:31:04;;;;;;;3.60;2.77;;;;;;;15.38;66.38;100797.09;5122311;28;20477;-65
2022/07/05 02:33:32;;;;;;;2.63;2.30;;;;;;;15.39;65.89;100792.53;5123708;28;20454;-66
2022/07/05 02:36:06;;;;;;;3.30;2.70;;;;;;;15.43;65.78;100792.06;5122839;28;20482;-66
2022/07/05 02:38:33;;;;;;;3.73;2.43;;;;;;;15.54;65.55;100792.81;5123172;28;20442;-66
2022/07/05 02:41:00;;;;;;;2.60;2.37;;;;;;;15.55;65.59;100798.00;5121580;28;20489;-66
2022/07/05 02:43:26;;;;;;;3.53;1.80;;;;;;;15.58;65.61;100794.16;5123081;28;20427;-66
2022/07/05 02:45:53;;;;;;;2.93;2.20;;;;;;;15.54;65.78;100796.34;5121323;28;20832;-66
2022/07/05 02:48:20;;;;;;;2.13;1.93;;;;;;;15.52;65.52;100795.66;5122648;28;20927;-65
2022/07/05 02:50:48;;;;;;;2.63;2.30;;;;;;;15.49;65.62;100801.34;5121500;28;20470;-67
2022/07/05 02:53:14;;;;;;;2.53;2.33;;;;;;;15.49;65.94;100804.03;5122317;28;20445;-65
2022/07/05 02:55:41;;;;;;;3.27;2.33;;;;;;;15.58;65.94;100803.09;5121811;28;20519;-66
2022/07/05 02:58:08;;;;;;;3.50;2.23;;;;;;;15.62;65.79;100787.44;5122589;28;20485;-66
2022/07/05 03:00:34;;;;;;;4.60;2.27;;;;;;;15.63;65.58;100789.97;5122034;28;20494;-66
2022/07/05 03:03:01;;;;;;;3.33;2.40;;;;;;;15.50;66.04;100797.66;5122922;28;20462;-66
2022/07/05 03:05:29;;;;;;;3.20;2.00;;;;;;;15.54;66.48;100801.72;5121992;28;20570;-67
2022/07/05 03:07:57;;;;;;;2.90;2.33;;;;;;;15.62;66.58;100803.59;5122926;28;20462;-66
2022/07/05 03:10:25;;;;;;;2.80;1.97;;;;;;;15.66;66.29;100798.72;5121057;28;20454;-66
2022/07/05 03:12:51;;;;;;;4.03;2.10;;;;;;;15.77;66.17;100793.13;5121572;28;20446;-66
2022/07/05 03:15:18;;;;;;;2.70;2.03;;;;;;;15.74;66.15;100799.63;5121875;28;20466;-66
2022/07/05 03:17:45;;;;;;;2.17;1.97;;;;;;;15.76;66.45;100803.06;5122083;28;20485;-66
2022/07/05 03:20:12;;;;;;;2.67;1.97;;;;;;;15.82;66.41;100810.50;5121015;28;20442;-65
2022/07/05 03:22:38;;;;;;;2.10;1.90;;;;;;;15.71;66.09;100802.66;5121382;28;20430;-66
2022/07/05 03:25:08;;;;;;;3.40;2.20;;;;;;;15.86;65.99;100815.56;5122050;28;20604;-66
2022/07/05 03:27:34;;;;;;;2.50;2.10;;;;;;;15.89;66.21;100808.00;5120742;28;20486;-67
2022/07/05 03:30:01;;;;;;;2.13;1.90;;;;;;;15.90;65.77;100816.91;5121696;28;20450;-66
2022/07/05 03:32:28;;;;;;;4.40;2.47;;;;;;;15.90;65.20;100816.91;5121780;28;20473;-67
2022/07/05 03:34:54;;;;;;;3.90;2.10;;;;;;;15.96;65.86;100818.97;5121816;28;20544;-68
2022/07/05 03:37:21;;;;;;;2.73;2.13;;;;;;;15.95;65.43;100817.28;5121136;28;20543;-68
2022/07/05 03:39:48;;;;;;;2.10;1.90;;;;;;;15.88;66.04;100814.38;5121398;28;20469;-67
2022/07/05 03:42:16;;;;;;;2.07;1.83;;;;;;;15.93;66.08;100812.03;5120882;28;20471;-67
2022/07/05 03:44:42;;;;;;;2.33;2.10;;;;;;;15.94;65.85;100813.75;5121630;28;20466;-67
2022/07/05 03:47:09;;;;;;;3.27;2.40;;;;;;;15.91;66.15;100821.31;5120273;28;20862;-67
2022/07/05 03:49:36;;;;;;;5.20;2.50;;;;;;;15.89;66.57;100818.78;5121753;28;20434;-67
2022/07/05 03:52:02;;;;;;;3.50;2.20;;;;;;;15.97;65.93;100824.22;5120484;28;20504;-67
2022/07/05 03:54:29;;;;;;;3.50;2.73;;;;;;;15.99;65.79;100822.19;5121366;28;20442;-68
2022/07/05 03:56:56;;;;;;;3.20;2.00;;;;;;;16.01;65.80;100816.66;5120275;28;20498;-68
2022/07/05 03:59:24;;;;;;;3.17;2.43;;;;;;;15.94;66.24;100823.69;5121668;28;20423;-68
2022/07/05 04:01:50;;;;;;;5.10;1.90;;;;;;;15.99;65.79;100824.91;5120623;28;21019;-67
2022/07/05 04:04:17;;;;;;;7.33;3.10;;;;;;;16.06;65.76;100826.94;5121274;28;20923;-68
2022/07/05 04:06:44;;;;;;;4.30;2.10;;;;;;;16.12;65.53;100835.22;5118999;28;20465;-67
2022/07/05 04:09:10;;;;;;;4.73;2.00;;;;;;;16.17;65.22;100829.34;5116442;28;20449;-67
2022/07/05 04:11:37;;;;;;;4.70;2.40;;;;;;;16.20;65.14;100837.13;5119573;28;20574;-66
2022/07/05 04:14:04;;;;;;;1.80;1.63;;;;;;;16.38;64.05;100832.44;5119999;28;20445;-64
2022/07/05 04:16:32;;;;;;;5.70;2.60;;;;;;;16.41;64.07;100843.94;5120427;28;20462;-65
2022/07/05 04:18:58;;;;;;;2.20;2.00;;;;;;;16.54;64.03;100842.47;5121917;28;20466;-64
2022/07/05 04:21:25;;;;;;;6.40;1.93;;;;;;;16.61;64.29;100830.97;5120013;28;20472;-65
2022/07/05 04:23:52;;;;;;;3.53;2.10;;;;;;;16.81;64.37;100840.47;5121734;28;20426;-64
2022/07/05 04:26:18;;;;;;;4.63;2.13;;;;;;;17.03;63.66;100830.03;5114958;28;20569;-65
2022/07/05 04:28:45;;;;;;;2.70;2.00;;;;;;;17.20;63.58;100839.00;5119199;28;20449;-65
2022/07/05 04:31:12;;;;;;;2.67;2.10;;;;;;;17.30;61.83;100836.97;5119245;28;20493;-65
2022/07/05 04:33:40;;;;;;;4.33;2.40;;;;;;;17.44;60.94;100847.06;5120567;28;20475;-65
2022/07/05 04:36:07;;;;;;;8.23;2.30;;;;;;;18.07;60.84;100841.88;5119136;28;20541;-65
2022/07/05 04:38:34;;;;;;;2.90;1.90;;;;;;;18.35;57.13;100836.84;5117947;28;20953;-65
2022/07/05 04:41:00;;;;;;;4.70;2.13;;;;;;;17.90;58.48;100843.81;5118548;28;20519;-66
2022/07/05 04:43:27;;;;;;;4.50;1.80;;;;;;;17.99;59.03;100850.88;5119360;28;20446;-65
2022/07/05 04:45:54;;;;;;;3.53;2.00;;;;;;;18.10;59.15;100855.06;5118793;28;20478;-65
2022/07/05 04:48:20;;;;;;;4.40;1.97;;;;;;;18.07;58.20;100852.69;5120986;28;21082;-65
2022/07/05 04:50:48;;;;;;;3.30;2.07;;;;;;;18.06;58.86;100859.97;5119132;28;20530;-65
2022/07/05 04:53:15;;;;;;;3.10;1.73;;;;;;;17.79;59.05;100854.97;5120931;28;20469;-65
2022/07/05 04:55:42;;;;;;;5.10;1.77;;;;;;;17.94;59.12;100863.25;5120174;28;20474;-66
2022/07/05 04:58:08;;;;;;;2.83;1.80;;;;;;;18.09;57.50;100863.34;5120045;28;20489;-66
2022/07/05 05:00:35;;;;;;;2.80;2.00;;;;;;;18.91;55.22;100857.53;5120120;28;20495;-66
2022/07/05 05:03:02;;;;;;;6.43;1.83;;;;;;;19.79;53.48;100861.53;5120591;28;20454;-65
2022/07/05 05:05:28;;;;;;;3.57;1.60;;;;;;;21.67;48.10;100864.44;5119111;28;20458;-65
2022/07/05 05:07:56;;;;;;;2.30;1.70;;;;;;;21.41;47.29;100869.44;5119646;28;20456;-64
2022/07/05 05:10:24;;;;;;;5.37;2.10;;;;;;;20.25;49.95;100869.44;5118082;28;20473;-65
2022/07/05 05:12:50;;;;;;;3.93;1.60;;;;;;;20.29;50.29;100862.63;5116711;28;20476;-64
2022/07/05 05:15:17;;;;;;;3.23;1.80;;;;;;;20.02;51.02;100871.44;5118140;28;20495;-66
2022/07/05 05:17:45;;;;;;;1.83;1.73;;;;;;;19.72;51.95;100865.94;5118983;28;20481;-66
2022/07/05 05:20:14;;;;;;;3.70;1.70;;;;;;;19.37;53.58;100865.63;5117615;28;20481;-63
2022/07/05 05:22:41;;;;;;;4.03;2.00;;;;;;;20.09;51.48;100870.50;5119425;28;20446;-65
2022/07/05 05:25:10;;;;;;;4.23;2.20;;;;;;;20.12;51.73;100866.56;5118115;28;20470;-66
2022/07/05 05:27:41;;;;;;;2.90;2.20;;;;;;;20.09;51.04;100872.38;5114213;28;21007;-64
2022/07/05 05:30:09;;;;;;;3.60;1.93;;;;;;;19.75;52.46;100880.03;5118254;28;20974;-65
2022/07/05 05:32:36;;;;;;;3.07;2.10;;;;;;;19.33;52.81;100872.44;5118453;28;20438;-65
2022/07/05 05:35:02;;;;;;;3.20;2.20;;;;;;;19.82;51.79;100871.97;5117415;28;20446;-65
2022/07/05 05:37:29;;;;;;;2.80;1.70;;;;;;;19.84;50.87;100872.66;5094602;28;20479;-66
2022/07/05 05:39:56;;;;;;;6.13;1.83;;;;;;;20.97;49.56;100872.38;5097983;28;20454;-67
2022/07/05 05:42:24;;;;;;;3.67;2.07;;;;;;;21.22;47.82;100881.00;5087603;28;20513;-65
2022/07/05 05:44:50;;;;;;;5.20;2.07;;;;;;;20.83;48.31;100883.13;5092344;28;20435;-65
2022/07/05 05:47:17;;;;;;;4.00;1.83;;;;;;;21.06;47.81;100890.25;5097646;28;20467;-66
2022/07/05 05:49:44;;;;;;;4.40;2.27;;;;;;;21.33;48.48;100896.78;5098197;28;20458;-65
2022/07/05 05:52:10;;;;;;;2.80;1.90;;;;;;;22.94;43.22;100893.94;5093527;28;20520;-65
2022/07/05 05:54:37;;;;;;;6.40;1.80;;;;;;;25.27;39.58;100902.69;5099115;28;20451;-66
2022/07/05 05:57:04;;;;;;;2.53;1.40;;;;;;;25.05;38.98;100904.09;5094834;28;20498;-66
2022/07/05 05:59:32;;;;;;;3.90;2.23;;;;;;;24.23;39.89;100900.06;5099240;28;20438;-66
2022/07/05 06:01:59;;;;;;;7.70;2.20;;;;;;;23.39;42.33;100895.31;5113428;28;20473;-66
2022/07/05 06:04:25;;;;;;;2.00;1.80;;;;;;;23.36;42.40;100896.56;5116020;28;20434;-66
2022/07/05 06:06:52;;;;;;;3.40;1.93;;;;;;;23.58;41.99;100897.19;5101309;28;20489;-65
2022/07/05 06:09:19;;;;;;;9.17;2.00;;;;;;;24.13;40.77;100904.25;5101364;28;20430;-66
2022/07/05 06:11:45;;;;;;;2.30;1.73;;;;;;;24.20;41.21;100905.06;5096422;28;20536;-66
2022/07/05 06:14:12;;;;;;;4.10;1.80;;;;;;;24.42;40.39;100908.38;5098691;28;20442;-66
2022/07/05 06:16:40;;;;;;;3.70;1.40;;;;;;;25.05;38.40;100915.03;5103257;28;20529;-66
2022/07/05 06:19:07;;;;;;;3.40;2.00;;;;;;;24.49;39.76;100922.03;5096724;28;20487;-65
2022/07/05 06:21:34;;;;;;;2.87;1.60;;;;;;;24.74;39.30;100916.69;5103223;28;20497;-65
2022/07/05 06:24:01;;;;;;;2.00;1.60;;;;;;;25.76;37.30;100919.34;5120047;28;20422;-66
2022/07/05 06:26:27;;;;;;;2.90;1.77;;;;;;;25.81;36.87;100924.97;5089437;28;20471;-65
2022/07/05 06:28:54;;;;;;;2.73;1.53;;;;;;;25.90;37.14;100925.53;5102105;28;20427;-65
2022/07/05 06:31:21;;;;;;;2.90;1.50;;;;;;;26.76;34.83;100914.69;5101254;28;20486;-66
2022/07/05 06:33:49;;;;;;;4.00;1.60;;;;;;;27.86;32.63;100918.06;5102112;28;20459;-66
2022/07/05 06:36:15;;;;;;;3.77;1.20;;;;;;;28.48;31.49;100917.50;5111643;28;20500;-66
2022/07/05 06:38:42;;;;;;;6.03;1.30;;;;;;;27.94;32.47;100917.72;5122663;28;20610;-66
2022/07/05 06:41:09;;;;;;;2.73;1.43;;;;;;;28.33;32.11;100921.63;5121714;28;20530;-66
2022/07/05 06:43:37;;;;;;;2.57;1.17;;;;;;;28.23;31.72;100917.78;5122458;28;20437;-66
2022/07/05 06:46:03;;;;;;;2.10;1.20;;;;;;;29.79;28.90;100911.13;5120673;27;20481;-66
2022/07/05 06:48:30;;;;;;;1.87;1.43;;;;;;;28.34;30.35;100919.69;5122209;28;20426;-66
2022/07/05 06:50:58;;;;;;;1.40;1.03;;;;;;;29.34;30.51;100924.94;5121173;27;21107;-67
2022/07/05 06:53:25;;;;;;;2.80;0.97;;;;;;;27.00;32.91;100930.19;5122532;28;20445;-66
2022/07/05 06:55:52;;;;;;;4.03;1.20;;;;;;;29.02;30.37;100926.28;5121358;28;20473;-67
2022/07/05 06:58:19;;;;;;;3.03;1.13;;;;;;;29.68;29.39;100925.78;5121072;28;20482;-66
2022/07/05 07:00:45;;;;;;;2.10;1.23;;;;;;;29.49;29.06;100919.69;5121483;28;20469;-66
2022/07/05 07:03:12;;;;;;;2.07;1.30;;;;;;;29.56;29.36;100919.53;5123013;28;20434;-66
2022/07/05 07:05:39;;;;;;;4.50;1.13;;;;;;;30.16;28.50;100921.56;5120957;28;20477;-66
2022/07/05 07:10:51;;;;;;;3.17;1.00;;;;;;;29.25;29.14;100914.38;5120411;28;20485;-65
2022/07/05 07:13:19;;;;;;;3.37;1.40;;;;;;;28.79;29.37;100918.16;5121231;28;20478;-66
2022/07/05 07:15:47;;;;;;;1.60;1.00;;;;;;;26.78;30.94;100929.00;5121400;28;20466;-64
2022/07/05 07:18:15;;;;;;;1.40;0.67;;;;;;;26.97;30.94;100925.16;5122203;28;20490;-65
2022/07/05 07:20:42;;;;;;;1.63;0.90;;;;;;;28.76;28.22;100926.91;5120047;28;20478;-65
2022/07/05 07:23:10;;;;;;;4.13;1.23;;;;;;;28.95;28.55;100928.38;5121709;28;20434;-65
2022/07/05 07:25:37;;;;;;;3.93;1.30;;;;;;;31.16;26.78;100928.81;5100670;28;20467;-66
2022/07/05 07:28:04;;;;;;;2.60;1.03;;;;;;;29.61;28.89;100930.63;5116193;28;20480;-66
2022/07/05 07:30:31;;;;;;;1.63;0.80;;;;;;;27.75;31.48;100934.28;5121517;28;20462;-67
2022/07/05 07:32:58;;;;;;;3.10;1.13;;;;;;;27.53;30.37;100922.22;5121825;28;20449;-66
2022/07/05 07:35:24;;;;;;;2.10;0.90;;;;;;;26.66;31.50;100929.81;5118441;28;20539;-65
2022/07/05 07:37:52;;;;;;;1.90;0.93;;;;;;;28.23;29.93;100926.91;5121245;28;20470;-66
2022/07/05 07:40:20;;;;;;;1.50;0.73;;;;;;;26.99;28.58;100936.72;5121006;28;20454;-65
2022/07/05 07:42:46;;;;;;;2.10;0.90;;;;;;;26.90;28.68;100937.31;5120529;28;20447;-66
2022/07/05 07:45:13;;;;;;;1.40;0.73;;;;;;;29.28;25.71;100933.13;5120582;28;20433;-65
2022/07/05 07:47:40;;;;;;;1.57;0.83;;;;;;;29.17;25.09;100942.31;5121058;28;20500;-66
2022/07/05 07:50:08;;;;;;;1.87;0.70;;;;;;;29.92;25.03;100928.41;5120201;28;20963;-66
2022/07/05 07:52:34;;;;;;;6.23;1.20;;;;;;;30.34;24.25;100939.72;5121507;28;20507;-66
2022/07/05 07:55:01;;;;;;;2.00;1.10;;;;;;;30.13;25.30;100932.28;5121141;28;20481;-66
2022/07/05 07:57:29;;;;;;;1.43;0.60;;;;;;;32.31;21.82;100924.72;5118416;28;20501;-67
2022/07/05 07:59:56;;;;;;;2.67;1.27;;;;;;;29.10;25.83;100930.56;5120468;28;20698;-66
2022/07/05 08:02:23;;;;;;;1.67;0.83;;;;;;;30.76;24.28;100930.03;5120886;28;20474;-66
2022/07/05 08:04:50;;;;;;;2.33;1.00;;;;;;;31.84;22.64;100937.44;5120595;28;20442;-65
2022/07/05 08:07:18;;;;;;;1.50;0.80;;;;;;;30.49;23.57;100936.38;5120371;28;20504;-66
2022/07/05 08:09:45;;;;;;;1.37;0.60;;;;;;;30.37;22.21;100943.94;5120350;28;20879;-67
2022/07/05 08:12:11;;;;;;;1.60;0.90;;;;;;;30.79;22.26;100932.28;5118026;28;20477;-66
2022/07/05 08:14:39;;;;;;;1.43;0.80;;;;;;;31.98;22.73;100931.41;5120961;28;20452;-67
2022/07/05 08:17:08;;;;;;;2.47;1.00;;;;;;;30.21;23.80;100937.34;5119735;28;20470;-65
2022/07/05 08:22:19;;;;;;;1.20;0.70;;;;;;;29.14;25.12;100929.00;5119631;28;20485;-65
2022/07/05 08:24:47;;;;;;;3.27;1.17;;;;;;;31.56;22.67;100935.00;5120547;28;20445;-66
2022/07/05 08:27:14;;;;;;;3.20;1.20;;;;;;;31.25;23.11;100931.94;5118902;28;20478;-66
2022/07/05 08:29:42;;;;;;;2.57;1.00;;;;;;;31.12;23.21;100935.97;5120668;28;20501;-66
2022/07/05 08:32:10;;;;;;;2.93;1.13;;;;;;;30.58;23.94;100928.47;5120189;28;20482;-66
2022/07/05 08:34:37;;;;;;;2.20;0.70;;;;;;;32.21;22.45;100931.03;5119524;28;20458;-65
2022/07/05 08:37:04;;;;;;;1.63;0.90;;;;;;;29.90;24.19;100919.53;5119305;28;20504;-65
2022/07/05 08:39:31;;;;;;;0.90;0.57;;;;;;;31.24;22.55;100928.34;5120783;28;21170;-66
2022/07/05 08:41:59;;;;;;;2.07;1.10;;;;;;;31.32;21.28;100936.16;5118733;28;20539;-66
2022/07/05 08:44:28;;;;;;;1.23;0.70;;;;;;;28.82;23.76;100929.50;5120295;28;20434;-66
2022/07/05 08:46:57;;;;;;;2.23;0.70;;;;;;;27.08;26.61;100933.66;5118341;28;20531;-66
2022/07/05 08:49:27;;;;;;;2.53;0.73;;;;;;;25.64;28.79;100932.09;5119703;28;20430;-65
2022/07/05 08:51:55;;;;;;;2.27;1.20;;;;;;;25.26;29.50;100922.06;5119385;28;20534;-66
2022/07/05 08:54:23;;;;;;;2.60;1.00;;;;;;;26.97;27.27;100936.13;5120552;28;20422;-66
2022/07/05 08:56:51;;;;;;;2.77;0.80;;;;;;;27.49;26.14;100924.59;5117987;28;20524;-65
2022/07/05 08:59:17;;;;;;;1.70;0.77;;;;;;;28.49;25.67;100924.69;5120562;28;20466;-65
2022/07/05 09:01:46;;;;;;;3.73;1.00;;;;;;;27.73;25.87;100936.44;5118645;28;20847;-65
2022/07/05 09:04:14;;;;;;;1.60;0.77;;;;;;;29.37;24.29;100935.47;5119971;28;20486;-65
2022/07/05 09:06:41;;;;;;;1.90;0.77;;;;;;;31.24;21.62;100931.13;5119209;28;20500;-66
2022/07/05 09:09:08;;;;;;;3.53;1.27;;;;;;;29.17;24.03;100930.47;5120080;28;20836;-66
2022/07/05 09:11:37;;;;;;;1.80;0.80;;;;;;;29.51;24.12;100931.28;5117658;28;20470;-65
2022/07/05 09:14:05;;;;;;;1.33;0.80;;;;;;;29.09;24.47;100928.91;5119381;28;20434;-65
2022/07/05 09:16:32;;;;;;;1.50;0.97;;;;;;;30.41;22.62;100934.91;5118971;28;20495;-66
2022/07/05 09:19:06;;;;;;;1.97;1.10;;;;;;;31.25;22.97;100934.69;5119547;28;20480;-66
2022/07/05 09:21:35;;;;;;;2.93;1.10;;;;;;;29.68;23.21;100929.38;5118920;28;20484;-66
2022/07/05 09:24:03;;;;;;;1.13;0.77;;;;;;;31.34;22.25;100935.91;5119401;28;20442;-65
2022/07/05 09:26:34;;;;;;;2.30;0.90;;;;;;;31.66;22.11;100932.31;5114229;28;20500;-66
2022/07/05 09:29:01;;;;;;;1.40;0.70;;;;;;;29.43;23.98;100924.28;5119988;28;20438;-65
2022/07/05 09:31:30;;;;;;;2.73;0.87;;;;;;;31.24;22.06;100931.13;5119030;28;20466;-65
2022/07/05 09:34:05;;;;;;;1.37;0.80;;;;;;;28.92;24.20;100926.97;5117912;28;20469;-65
2022/07/05 09:36:51;;;;;;;2.40;0.83;;;;;;;28.18;24.21;100933.13;5118753;28;20471;-65
2022/07/05 09:39:18;;;;;;;1.90;1.30;;;;;;;24.92;28.72;100919.53;5118827;28;20510;-66
2022/07/05 09:41:44;;;;;;;2.57;0.80;;;;;;;26.09;28.08;100938.25;5118175;28;20474;-66
2022/07/05 09:44:11;;;;;;;2.03;0.90;;;;;;;25.30;28.80;100923.31;5119929;28;20437;-66
2022/07/05 09:46:38;;;;;;;2.83;1.40;;;;;;;24.71;29.03;100928.06;5117754;28;20997;-66
2022/07/05 09:49:05;;;;;;;1.60;0.87;;;;;;;27.03;26.78;100937.13;5119625;28;20445;-66
2022/07/05 09:51:48;;;;;;;1.20;0.90;;;;;;;28.08;25.31;100927.38;5118644;28;20503;-66
2022/07/05 09:54:16;;;;;;;1.70;0.80;;;;;;;28.80;24.30;100934.44;5118796;28;20487;-66
2022/07/05 09:56:47;;;;;;;1.20;0.90;;;;;;;26.89;26.43;100939.22;5118592;28;20504;-66
2022/07/05 09:59:16;;;;;;;2.83;1.03;;;;;;;25.69;27.80;100948.69;5122840;28;20461;-66
2022/07/05 10:01:43;;;;;;;2.27;1.30;;;;;;;26.23;27.92;100930.72;5122053;28;20545;-67
2022/07/05 10:04:10;;;;;;;1.80;0.90;;;;;;;26.77;28.14;100941.03;5123434;28;20430;-66
2022/07/05 10:06:37;;;;;;;1.20;0.80;;;;;;;28.05;25.63;100936.09;5122924;28;20474;-67
2022/07/05 10:09:05;;;;;;;4.40;1.00;;;;;;;26.35;27.54;100938.16;5122706;28;20464;-67
2022/07/05 10:11:33;;;;;;;2.30;1.20;;;;;;;27.09;27.09;100944.41;5121484;28;20676;-66
2022/07/05 10:14:04;;;;;;;1.33;0.73;;;;;;;28.47;25.09;100932.34;5123110;28;20450;-66
2022/07/05 10:16:31;;;;;;;2.03;0.90;;;;;;;29.13;24.82;100937.50;5121342;28;20478;-66
2022/07/05 10:18:58;;;;;;;2.53;1.40;;;;;;;30.51;23.53;100949.91;5123559;28;20507;-66
2022/07/05 10:21:26;;;;;;;2.87;0.90;;;;;;;29.00;23.79;100933.16;5121905;28;20480;-67
2022/07/05 10:23:53;;;;;;;3.13;1.00;;;;;;;29.74;22.99;100940.47;5122761;28;20458;-67
2022/07/05 10:26:21;;;;;;;2.07;1.23;;;;;;;29.19;24.14;100940.13;5121818;28;20503;-66
2022/07/05 10:28:52;;;;;;;2.40;1.00;;;;;;;30.42;22.02;100939.31;5122377;28;20510;-66
2022/07/05 10:31:19;;;;;;;1.83;0.80;;;;;;;30.03;21.94;100925.53;5121691;28;20503;-66
2022/07/05 10:33:46;;;;;;;2.13;1.30;;;;;;;29.26;23.61;100929.78;5118062;28;20529;-66
2022/07/05 10:36:14;;;;;;;2.20;0.90;;;;;;;28.45;24.65;100923.50;5118701;28;20474;-66
2022/07/05 10:38:43;;;;;;;2.07;0.80;;;;;;;29.44;24.18;100927.88;5122155;28;20489;-67
2022/07/05 10:41:13;;;;;;;1.03;0.80;;;;;;;29.86;22.40;100924.72;5118571;27;20477;-66
2022/07/05 10:43:39;;;;;;;2.10;1.20;;;;;;;29.13;23.72;100909.97;5119801;28;20505;-67
2022/07/05 10:46:08;;;;;;;4.20;1.20;;;;;;;29.71;24.58;100928.03;5110789;28;20498;-66
2022/07/05 10:48:35;;;;;;;1.83;0.80;;;;;;;30.21;22.53;100918.88;5100806;28;20431;-67
2022/07/05 10:51:15;;;;;;;2.50;1.10;;;;;;;30.75;22.23;100929.22;5119303;28;20481;-66
2022/07/05 10:54:03;;;;;;;2.17;1.03;;;;;;;30.02;23.67;100921.09;5118985;28;20446;-67
2022/07/05 10:56:29;;;;;;;3.00;1.00;;;;;;;28.18;25.37;100926.78;5119090;28;20499;-66
2022/07/05 10:59:05;;;;;;;2.60;1.20;;;;;;;26.71;26.71;100920.03;5120897;28;20474;-65
2022/07/05 11:01:35;;;;;;;1.30;0.97;;;;;;;26.98;27.45;100917.78;5118667;28;20557;-65
2022/07/05 11:04:21;;;;;;;1.83;1.03;;;;;;;27.39;26.41;100914.22;5120633;28;20433;-65
2022/07/05 11:06:49;;;;;;;1.83;0.97;;;;;;;28.98;24.14;100905.03;5119118;28;20519;-66
2022/07/05 11:09:18;;;;;;;1.23;0.80;;;;;;;29.39;24.72;100908.50;5119408;28;20438;-66
2022/07/05 11:11:47;;;;;;;1.10;0.83;;;;;;;30.27;22.99;100908.75;5117205;28;20507;-65
2022/07/05 11:14:33;;;;;;;1.10;0.57;;;;;;;28.93;23.46;100914.03;5119480;28;20478;-66
2022/07/05 11:17:27;;;;;;;2.00;1.00;;;;;;;28.00;25.11;100914.00;5115647;27;20531;-65
2022/07/05 11:20:07;;;;;;;3.80;0.90;;;;;;;28.54;24.36;100908.31;5117741;27;20489;-65
2022/07/05 11:22:34;;;;;;;4.17;1.13;;;;;;;28.58;25.05;100916.94;5120464;28;20469;-66
2022/07/05 11:25:03;;;;;;;1.40;0.90;;;;;;;28.12;25.72;100912.09;5121918;28;20422;-66
2022/07/05 11:27:31;;;;;;;3.60;1.20;;;;;;;26.77;27.18;100919.09;5119518;28;20474;-67
2022/07/05 11:29:58;;;;;;;1.40;0.93;;;;;;;25.64;29.60;100915.66;5120888;28;20517;-65
2022/07/05 11:32:37;;;;;;;2.47;1.10;;;;;;;26.04;28.52;100918.03;5121787;28;20470;-67